KJAC

Jackson Hole Airport

Jackson, Wyoming, USA
KJAC 172230Z 1723/1818 23011KT 2SM -SN SCT003 OVC015 TEMPO 1723/1803 OVC003 FM180300 21005KT 4SM -SN SCT015 OVC025 FM181200 VRB03KT 1SM -SN BR OVC008 AMD LTD TO CLD VIS AND WIND
Issued Valid From Valid To
Jan-17 @ 22:30 UTC
(53 minutes ago)
Jan-17 @ 23:00 UTC
(23 minutes ago)
Jan-18 @ 18:00 UTC
(in 19 hours)
Jan-17 @ 23:00 to Jan-18 @ 03:00
KJAC 172230Z 1723/1818 23011KT 2SM -SN SCT003 OVC015
Wind Visibility Clouds Conditions
230° at 11 knots 2 miles
  • Scattered at 300' AGL
  • Overcast at 1,500' AGL
  • Light Snow
Temporary Jan-17 @ 23:00 to Jan-18 @ 03:00
TEMPO 1723/1803 OVC003
Clouds
  • Overcast at 300' AGL
From Jan-18 @ 03:00 to Jan-18 @ 12:00
FM180300 21005KT 4SM -SN SCT015 OVC025
Wind Visibility Clouds Conditions
210° at 5 knots 4 miles
  • Scattered at 1,500' AGL
  • Overcast at 2,500' AGL
  • Light Snow
From Jan-18 @ 12:00 to Jan-18 @ 18:00
FM181200 VRB03KT 1SM -SN BR OVC008 AMD LTD TO CLD VIS AND WIND
Wind Visibility Clouds Conditions
Variable at 3 knots 1 miles
  • Overcast at 800' AGL
  • Light Snow
  • Mist
KJAC 172230Z 1723/1818 23011KT 2SM -SN SCT003 OVC015 TEMPO 1723/1803 OVC003 FM180300 21005KT 4SM -SN SCT015 OVC025 FM181200 VRB03KT 1SM -SN BR OVC008 AMD LTD TO CLD VIS AND WIND
Issued Jan-17 @ 22:30 UTC
(53 minutes ago)
Valid From Jan-17 @ 23:00 UTC
(23 minutes ago)
Valid To Jan-18 @ 18:00 UTC
(in 19 hours)
Jan-17 @ 23:00 - Jan-18 @ 03:00
Wind Visibility
230° at 11 knots 2 miles
Clouds
  • Scattered at 300' AGL
  • Overcast at 1,500' AGL
Conditions
  • Light Snow
Temporary Jan-17 @ 23:00 - Jan-18 @ 03:00
Clouds
  • Overcast at 300' AGL
From Jan-18 @ 03:00 - Jan-18 @ 12:00
Wind Visibility
210° at 5 knots 4 miles
Clouds
  • Scattered at 1,500' AGL
  • Overcast at 2,500' AGL
Conditions
  • Light Snow
From Jan-18 @ 12:00 - Jan-18 @ 18:00
Wind Visibility
Variable at 3 knots 1 miles
Clouds
  • Overcast at 800' AGL
Conditions
  • Light Snow
  • Mist